sensor_id;sensor_type;location;lat;lon;timestamp;temperature;humidity
37998;DHT22;24079;51.824;4.682;2023-07-29T00:00:42;18.90;99.90
37998;DHT22;24079;51.824;4.682;2023-07-29T00:03:08;18.90;99.90
37998;DHT22;24079;51.824;4.682;2023-07-29T00:05:33;18.90;99.90
37998;DHT22;24079;51.824;4.682;2023-07-29T00:07:59;18.90;99.90
37998;DHT22;24079;51.824;4.682;2023-07-29T00:10:25;18.90;99.90
37998;DHT22;24079;51.824;4.682;2023-07-29T00:12:51;19.00;99.90
37998;DHT22;24079;51.824;4.682;2023-07-29T00:15:17;19.00;99.90
37998;DHT22;24079;51.824;4.682;2023-07-29T00:17:42;19.00;99.90
37998;DHT22;24079;51.824;4.682;2023-07-29T00:20:09;18.90;99.90
37998;DHT22;24079;51.824;4.682;2023-07-29T00:22:34;19.00;99.90
37998;DHT22;24079;51.824;4.682;2023-07-29T00:25:00;18.90;99.90
37998;DHT22;24079;51.824;4.682;2023-07-29T00:27:26;18.90;99.90
37998;DHT22;24079;51.824;4.682;2023-07-29T00:29:52;18.90;99.90
37998;DHT22;24079;51.824;4.682;2023-07-29T00:32:19;18.90;99.90
37998;DHT22;24079;51.824;4.682;2023-07-29T00:34:45;18.90;99.90
37998;DHT22;24079;51.824;4.682;2023-07-29T00:37:11;18.80;99.90
37998;DHT22;24079;51.824;4.682;2023-07-29T00:39:38;18.80;99.90
37998;DHT22;24079;51.824;4.682;2023-07-29T00:42:04;18.80;99.90
37998;DHT22;24079;51.824;4.682;2023-07-29T00:44:30;18.70;99.90
37998;DHT22;24079;51.824;4.682;2023-07-29T00:47:02;18.70;99.90
37998;DHT22;24079;51.824;4.682;2023-07-29T00:49:28;18.80;99.90
37998;DHT22;24079;51.824;4.682;2023-07-29T00:51:55;18.80;99.90
37998;DHT22;24079;51.824;4.682;2023-07-29T00:54:21;18.80;99.90
37998;DHT22;24079;51.824;4.682;2023-07-29T00:56:47;18.80;99.90
37998;DHT22;24079;51.824;4.682;2023-07-29T00:59:13;18.80;99.90
37998;DHT22;24079;51.824;4.682;2023-07-29T01:01:39;18.80;99.90
37998;DHT22;24079;51.824;4.682;2023-07-29T01:04:05;18.80;99.90
37998;DHT22;24079;51.824;4.682;2023-07-29T01:06:46;18.80;99.90
37998;DHT22;24079;51.824;4.682;2023-07-29T01:09:53;18.80;99.90
37998;DHT22;24079;51.824;4.682;2023-07-29T01:17:46;18.70;99.90
37998;DHT22;24079;51.824;4.682;2023-07-29T01:20:15;18.70;99.90
37998;DHT22;24079;51.824;4.682;2023-07-29T01:22:42;18.70;99.90
37998;DHT22;24079;51.824;4.682;2023-07-29T01:25:08;18.70;99.90
37998;DHT22;24079;51.824;4.682;2023-07-29T01:27:34;18.60;99.90
37998;DHT22;24079;51.824;4.682;2023-07-29T01:30:01;18.60;99.90
37998;DHT22;24079;51.824;4.682;2023-07-29T01:35:22;18.50;99.90
37998;DHT22;24079;51.824;4.682;2023-07-29T01:37:55;18.40;99.90
37998;DHT22;24079;51.824;4.682;2023-07-29T01:40:23;18.50;99.90
37998;DHT22;24079;51.824;4.682;2023-07-29T01:42:49;18.50;99.90
37998;DHT22;24079;51.824;4.682;2023-07-29T01:45:16;18.40;99.90
37998;DHT22;24079;51.824;4.682;2023-07-29T01:47:41;18.40;99.90
37998;DHT22;24079;51.824;4.682;2023-07-29T01:50:08;18.30;99.90
37998;DHT22;24079;51.824;4.682;2023-07-29T01:52:33;18.30;99.90
37998;DHT22;24079;51.824;4.682;2023-07-29T01:55:00;18.30;99.90
37998;DHT22;24079;51.824;4.682;2023-07-29T01:57:26;18.30;99.90
37998;DHT22;24079;51.824;4.682;2023-07-29T01:59:51;18.40;99.90
37998;DHT22;24079;51.824;4.682;2023-07-29T02:02:17;18.30;99.90
37998;DHT22;24079;51.824;4.682;2023-07-29T02:04:42;18.30;99.90
37998;DHT22;24079;51.824;4.682;2023-07-29T02:07:08;18.30;99.90
37998;DHT22;24079;51.824;4.682;2023-07-29T02:09:34;18.30;99.90
37998;DHT22;24079;51.824;4.682;2023-07-29T02:11:59;18.30;99.90
37998;DHT22;24079;51.824;4.682;2023-07-29T02:14:25;18.20;99.90
37998;DHT22;24079;51.824;4.682;2023-07-29T02:16:51;18.20;99.90
37998;DHT22;24079;51.824;4.682;2023-07-29T02:19:16;18.20;99.90
37998;DHT22;24079;51.824;4.682;2023-07-29T02:21:43;18.20;99.90
37998;DHT22;24079;51.824;4.682;2023-07-29T02:24:09;18.20;99.90
37998;DHT22;24079;51.824;4.682;2023-07-29T02:26:35;18.10;99.90
37998;DHT22;24079;51.824;4.682;2023-07-29T02:29:01;18.00;99.90
37998;DHT22;24079;51.824;4.682;2023-07-29T02:31:27;18.10;99.90
37998;DHT22;24079;51.824;4.682;2023-07-29T02:33:53;18.10;99.90
37998;DHT22;24079;51.824;4.682;2023-07-29T02:36:19;18.10;99.90
37998;DHT22;24079;51.824;4.682;2023-07-29T02:38:45;18.10;99.90
37998;DHT22;24079;51.824;4.682;2023-07-29T02:41:11;18.10;99.90
37998;DHT22;24079;51.824;4.682;2023-07-29T02:43:38;18.10;99.90
37998;DHT22;24079;51.824;4.682;2023-07-29T02:46:04;18.20;99.90
37998;DHT22;24079;51.824;4.682;2023-07-29T02:48:30;18.20;99.90
37998;DHT22;24079;51.824;4.682;2023-07-29T02:50:56;18.20;99.90
37998;DHT22;24079;51.824;4.682;2023-07-29T02:53:22;18.20;99.90
37998;DHT22;24079;51.824;4.682;2023-07-29T02:55:48;18.20;99.90
37998;DHT22;24079;51.824;4.682;2023-07-29T02:58:14;18.10;99.90
37998;DHT22;24079;51.824;4.682;2023-07-29T03:00:40;18.10;99.90
37998;DHT22;24079;51.824;4.682;2023-07-29T03:03:09;18.10;99.90
37998;DHT22;24079;51.824;4.682;2023-07-29T03:05:35;18.00;99.90
37998;DHT22;24079;51.824;4.682;2023-07-29T03:08:00;18.00;99.90
37998;DHT22;24079;51.824;4.682;2023-07-29T03:10:26;18.00;99.90
37998;DHT22;24079;51.824;4.682;2023-07-29T03:12:54;18.00;99.90
37998;DHT22;24079;51.824;4.682;2023-07-29T03:15:23;17.90;99.90
37998;DHT22;24079;51.824;4.682;2023-07-29T03:17:50;18.00;99.90
37998;DHT22;24079;51.824;4.682;2023-07-29T03:20:15;17.90;99.90
37998;DHT22;24079;51.824;4.682;2023-07-29T03:22:43;17.90;99.90
37998;DHT22;24079;51.824;4.682;2023-07-29T03:25:09;17.80;99.90
37998;DHT22;24079;51.824;4.682;2023-07-29T03:27:35;17.80;99.90
37998;DHT22;24079;51.824;4.682;2023-07-29T03:30:03;17.80;99.90
37998;DHT22;24079;51.824;4.682;2023-07-29T03:32:28;17.90;99.90
37998;DHT22;24079;51.824;4.682;2023-07-29T03:34:54;17.90;99.90
37998;DHT22;24079;51.824;4.682;2023-07-29T03:37:20;17.80;99.90
37998;DHT22;24079;51.824;4.682;2023-07-29T03:39:47;17.80;99.90
37998;DHT22;24079;51.824;4.682;2023-07-29T03:42:12;17.90;99.90
37998;DHT22;24079;51.824;4.682;2023-07-29T03:44:38;17.90;99.90
37998;DHT22;24079;51.824;4.682;2023-07-29T03:47:05;17.90;99.90
37998;DHT22;24079;51.824;4.682;2023-07-29T03:49:31;17.80;99.90
37998;DHT22;24079;51.824;4.682;2023-07-29T03:51:57;17.80;99.90
37998;DHT22;24079;51.824;4.682;2023-07-29T03:54:23;17.80;99.90
37998;DHT22;24079;51.824;4.682;2023-07-29T03:56:48;17.80;99.90
37998;DHT22;24079;51.824;4.682;2023-07-29T03:59:14;17.80;99.90
37998;DHT22;24079;51.824;4.682;2023-07-29T04:01:40;17.80;99.90
37998;DHT22;24079;51.824;4.682;2023-07-29T04:04:05;17.80;99.90
37998;DHT22;24079;51.824;4.682;2023-07-29T04:06:31;17.80;99.90
37998;DHT22;24079;51.824;4.682;2023-07-29T04:08:57;17.80;99.90
37998;DHT22;24079;51.824;4.682;2023-07-29T04:11:23;17.80;99.90
37998;DHT22;24079;51.824;4.682;2023-07-29T04:13:49;17.90;99.90
37998;DHT22;24079;51.824;4.682;2023-07-29T04:16:15;17.80;99.90
37998;DHT22;24079;51.824;4.682;2023-07-29T04:18:42;17.80;99.90
37998;DHT22;24079;51.824;4.682;2023-07-29T04:21:07;17.80;99.90
37998;DHT22;24079;51.824;4.682;2023-07-29T04:23:33;17.80;99.90
37998;DHT22;24079;51.824;4.682;2023-07-29T04:25:59;17.80;99.90
37998;DHT22;24079;51.824;4.682;2023-07-29T04:28:24;17.80;99.90
37998;DHT22;24079;51.824;4.682;2023-07-29T04:30:50;17.70;99.90
37998;DHT22;24079;51.824;4.682;2023-07-29T04:33:16;17.80;99.90
37998;DHT22;24079;51.824;4.682;2023-07-29T04:35:41;17.80;99.90
37998;DHT22;24079;51.824;4.682;2023-07-29T04:38:07;17.80;99.90
37998;DHT22;24079;51.824;4.682;2023-07-29T04:40:33;17.90;99.90
37998;DHT22;24079;51.824;4.682;2023-07-29T04:43:02;17.80;99.90
37998;DHT22;24079;51.824;4.682;2023-07-29T04:45:28;17.80;99.90
37998;DHT22;24079;51.824;4.682;2023-07-29T04:47:55;17.90;99.90
37998;DHT22;24079;51.824;4.682;2023-07-29T04:50:21;17.80;99.90
37998;DHT22;24079;51.824;4.682;2023-07-29T04:52:46;17.90;99.90
37998;DHT22;24079;51.824;4.682;2023-07-29T04:55:12;17.80;99.90
37998;DHT22;24079;51.824;4.682;2023-07-29T04:57:37;17.90;99.90
37998;DHT22;24079;51.824;4.682;2023-07-29T05:00:03;17.90;99.90
37998;DHT22;24079;51.824;4.682;2023-07-29T05:02:29;17.90;99.90
37998;DHT22;24079;51.824;4.682;2023-07-29T05:04:55;18.00;99.90
37998;DHT22;24079;51.824;4.682;2023-07-29T05:07:21;18.00;99.90
37998;DHT22;24079;51.824;4.682;2023-07-29T05:09:48;18.00;99.90
37998;DHT22;24079;51.824;4.682;2023-07-29T05:12:14;18.00;99.90
37998;DHT22;24079;51.824;4.682;2023-07-29T05:14:40;18.00;99.90
37998;DHT22;24079;51.824;4.682;2023-07-29T05:17:05;18.00;99.90
37998;DHT22;24079;51.824;4.682;2023-07-29T05:19:31;18.10;99.90
37998;DHT22;24079;51.824;4.682;2023-07-29T05:21:57;18.10;99.90
37998;DHT22;24079;51.824;4.682;2023-07-29T05:24:23;18.20;99.90
37998;DHT22;24079;51.824;4.682;2023-07-29T05:26:49;18.20;99.90
37998;DHT22;24079;51.824;4.682;2023-07-29T05:29:15;18.20;99.90
37998;DHT22;24079;51.824;4.682;2023-07-29T05:31:41;18.20;99.90
37998;DHT22;24079;51.824;4.682;2023-07-29T05:34:06;18.20;99.90
37998;DHT22;24079;51.824;4.682;2023-07-29T05:36:32;18.30;99.90
37998;DHT22;24079;51.824;4.682;2023-07-29T05:38:58;18.30;99.90
37998;DHT22;24079;51.824;4.682;2023-07-29T05:41:23;18.40;99.90
37998;DHT22;24079;51.824;4.682;2023-07-29T05:43:49;18.40;99.90
37998;DHT22;24079;51.824;4.682;2023-07-29T05:46:15;18.50;99.90
37998;DHT22;24079;51.824;4.682;2023-07-29T05:48:43;18.50;99.90
37998;DHT22;24079;51.824;4.682;2023-07-29T05:51:09;18.50;99.90
37998;DHT22;24079;51.824;4.682;2023-07-29T05:53:35;18.50;99.90
37998;DHT22;24079;51.824;4.682;2023-07-29T05:56:00;18.60;99.90
37998;DHT22;24079;51.824;4.682;2023-07-29T05:58:26;18.50;99.90
37998;DHT22;24079;51.824;4.682;2023-07-29T06:00:51;18.60;99.90
37998;DHT22;24079;51.824;4.682;2023-07-29T06:03:17;18.70;99.90
37998;DHT22;24079;51.824;4.682;2023-07-29T06:05:43;18.80;99.90
37998;DHT22;24079;51.824;4.682;2023-07-29T06:08:08;18.90;99.90
37998;DHT22;24079;51.824;4.682;2023-07-29T06:10:34;18.90;99.90
37998;DHT22;24079;51.824;4.682;2023-07-29T06:13:00;18.90;99.90
37998;DHT22;24079;51.824;4.682;2023-07-29T06:15:25;18.90;99.90
37998;DHT22;24079;51.824;4.682;2023-07-29T06:17:51;18.80;99.90
37998;DHT22;24079;51.824;4.682;2023-07-29T06:20:17;18.80;99.90
37998;DHT22;24079;51.824;4.682;2023-07-29T06:22:42;18.70;99.90
37998;DHT22;24079;51.824;4.682;2023-07-29T06:25:11;18.70;99.90
37998;DHT22;24079;51.824;4.682;2023-07-29T06:27:36;18.80;99.90
37998;DHT22;24079;51.824;4.682;2023-07-29T06:30:02;18.80;99.90
37998;DHT22;24079;51.824;4.682;2023-07-29T06:32:28;18.80;99.90
37998;DHT22;24079;51.824;4.682;2023-07-29T06:34:53;18.80;99.90
37998;DHT22;24079;51.824;4.682;2023-07-29T06:37:20;18.80;99.90
37998;DHT22;24079;51.824;4.682;2023-07-29T06:39:45;18.80;99.90
37998;DHT22;24079;51.824;4.682;2023-07-29T06:42:11;18.90;99.90
37998;DHT22;24079;51.824;4.682;2023-07-29T06:44:37;19.00;99.90
37998;DHT22;24079;51.824;4.682;2023-07-29T06:47:03;19.20;99.90
37998;DHT22;24079;51.824;4.682;2023-07-29T06:49:28;19.30;99.90
37998;DHT22;24079;51.824;4.682;2023-07-29T06:51:54;19.60;99.90
37998;DHT22;24079;51.824;4.682;2023-07-29T06:54:24;19.80;99.90
37998;DHT22;24079;51.824;4.682;2023-07-29T06:56:50;19.80;99.90
37998;DHT22;24079;51.824;4.682;2023-07-29T06:59:16;19.80;99.90
37998;DHT22;24079;51.824;4.682;2023-07-29T07:01:42;19.70;99.90
37998;DHT22;24079;51.824;4.682;2023-07-29T07:04:08;19.80;99.90
37998;DHT22;24079;51.824;4.682;2023-07-29T07:06:34;19.80;99.90
37998;DHT22;24079;51.824;4.682;2023-07-29T07:08:59;19.70;99.90
37998;DHT22;24079;51.824;4.682;2023-07-29T07:11:25;19.60;99.90
37998;DHT22;24079;51.824;4.682;2023-07-29T07:13:50;19.80;99.90
37998;DHT22;24079;51.824;4.682;2023-07-29T07:16:16;20.30;99.90
37998;DHT22;24079;51.824;4.682;2023-07-29T07:18:42;20.90;99.90
37998;DHT22;24079;51.824;4.682;2023-07-29T07:21:07;21.10;99.90
37998;DHT22;24079;51.824;4.682;2023-07-29T07:23:33;20.90;99.90
37998;DHT22;24079;51.824;4.682;2023-07-29T07:25:59;20.40;99.90
37998;DHT22;24079;51.824;4.682;2023-07-29T07:28:24;20.10;99.90
37998;DHT22;24079;51.824;4.682;2023-07-29T07:30:51;20.00;99.90
37998;DHT22;24079;51.824;4.682;2023-07-29T07:33:17;20.00;99.90
37998;DHT22;24079;51.824;4.682;2023-07-29T07:35:42;20.00;99.90
37998;DHT22;24079;51.824;4.682;2023-07-29T07:38:08;20.10;99.90
37998;DHT22;24079;51.824;4.682;2023-07-29T07:40:35;20.10;99.90
37998;DHT22;24079;51.824;4.682;2023-07-29T07:43:01;20.10;99.90
37998;DHT22;24079;51.824;4.682;2023-07-29T07:45:27;20.00;99.90
37998;DHT22;24079;51.824;4.682;2023-07-29T07:47:53;20.00;99.90
37998;DHT22;24079;51.824;4.682;2023-07-29T07:50:20;19.90;99.90
37998;DHT22;24079;51.824;4.682;2023-07-29T07:52:45;20.00;99.90
37998;DHT22;24079;51.824;4.682;2023-07-29T07:55:11;20.00;99.90
37998;DHT22;24079;51.824;4.682;2023-07-29T07:57:37;20.10;99.90
37998;DHT22;24079;51.824;4.682;2023-07-29T08:00:03;20.10;99.90
37998;DHT22;24079;51.824;4.682;2023-07-29T08:02:30;20.00;99.90
37998;DHT22;24079;51.824;4.682;2023-07-29T08:04:55;20.00;99.90
37998;DHT22;24079;51.824;4.682;2023-07-29T08:07:21;19.90;99.90
37998;DHT22;24079;51.824;4.682;2023-07-29T08:09:47;20.00;99.90
37998;DHT22;24079;51.824;4.682;2023-07-29T08:12:12;20.00;99.90
37998;DHT22;24079;51.824;4.682;2023-07-29T08:14:38;20.00;99.90
37998;DHT22;24079;51.824;4.682;2023-07-29T08:17:04;20.10;99.90
37998;DHT22;24079;51.824;4.682;2023-07-29T08:19:30;20.30;99.90
37998;DHT22;24079;51.824;4.682;2023-07-29T08:21:55;20.60;99.90
37998;DHT22;24079;51.824;4.682;2023-07-29T08:24:21;21.20;99.90
37998;DHT22;24079;51.824;4.682;2023-07-29T08:26:47;22.00;99.90
37998;DHT22;24079;51.824;4.682;2023-07-29T08:29:12;22.60;99.90
37998;DHT22;24079;51.824;4.682;2023-07-29T08:31:39;23.10;99.90
37998;DHT22;24079;51.824;4.682;2023-07-29T08:34:05;22.60;99.90
37998;DHT22;24079;51.824;4.682;2023-07-29T08:36:31;22.50;99.90
37998;DHT22;24079;51.824;4.682;2023-07-29T08:38:57;23.30;99.90
37998;DHT22;24079;51.824;4.682;2023-07-29T08:41:31;23.60;99.90
37998;DHT22;24079;51.824;4.682;2023-07-29T08:44:06;23.90;99.90
37998;DHT22;24079;51.824;4.682;2023-07-29T08:46:33;23.60;99.90
37998;DHT22;24079;51.824;4.682;2023-07-29T08:48:59;23.20;99.90
37998;DHT22;24079;51.824;4.682;2023-07-29T08:51:28;22.80;99.90
37998;DHT22;24079;51.824;4.682;2023-07-29T08:53:55;22.70;99.90
37998;DHT22;24079;51.824;4.682;2023-07-29T08:56:21;22.40;99.90
37998;DHT22;24079;51.824;4.682;2023-07-29T08:58:48;22.10;99.90
37998;DHT22;24079;51.824;4.682;2023-07-29T09:01:15;21.90;99.90
37998;DHT22;24079;51.824;4.682;2023-07-29T09:03:41;21.80;99.90
37998;DHT22;24079;51.824;4.682;2023-07-29T09:06:08;21.60;99.90
37998;DHT22;24079;51.824;4.682;2023-07-29T09:08:34;21.30;99.90
37998;DHT22;24079;51.824;4.682;2023-07-29T09:11:02;21.10;99.90
37998;DHT22;24079;51.824;4.682;2023-07-29T09:13:28;21.10;99.90
37998;DHT22;24079;51.824;4.682;2023-07-29T09:15:57;21.00;99.90
37998;DHT22;24079;51.824;4.682;2023-07-29T09:18:23;21.10;99.90
37998;DHT22;24079;51.824;4.682;2023-07-29T09:20:51;21.10;99.90
37998;DHT22;24079;51.824;4.682;2023-07-29T09:23:18;21.20;99.90
37998;DHT22;24079;51.824;4.682;2023-07-29T09:25:46;21.40;99.90
37998;DHT22;24079;51.824;4.682;2023-07-29T09:28:16;21.50;99.90
37998;DHT22;24079;51.824;4.682;2023-07-29T09:30:45;21.70;99.90
37998;DHT22;24079;51.824;4.682;2023-07-29T09:33:11;21.90;99.90
37998;DHT22;24079;51.824;4.682;2023-07-29T09:35:38;22.00;99.90
37998;DHT22;24079;51.824;4.682;2023-07-29T09:38:05;21.90;99.90
37998;DHT22;24079;51.824;4.682;2023-07-29T09:40:38;21.70;99.90
37998;DHT22;24079;51.824;4.682;2023-07-29T09:43:06;21.50;99.90
37998;DHT22;24079;51.824;4.682;2023-07-29T09:45:34;21.30;99.90
37998;DHT22;24079;51.824;4.682;2023-07-29T09:48:02;21.10;99.90
37998;DHT22;24079;51.824;4.682;2023-07-29T09:50:29;21.30;99.90
37998;DHT22;24079;51.824;4.682;2023-07-29T09:52:56;21.30;99.90
37998;DHT22;24079;51.824;4.682;2023-07-29T09:55:25;21.50;99.90
37998;DHT22;24079;51.824;4.682;2023-07-29T09:58:00;21.50;99.90
37998;DHT22;24079;51.824;4.682;2023-07-29T10:00:46;21.30;99.90
37998;DHT22;24079;51.824;4.682;2023-07-29T10:03:14;21.00;99.90
37998;DHT22;24079;51.824;4.682;2023-07-29T10:05:40;20.80;99.90
37998;DHT22;24079;51.824;4.682;2023-07-29T10:08:07;20.80;99.90
37998;DHT22;24079;51.824;4.682;2023-07-29T10:10:33;20.80;99.90
37998;DHT22;24079;51.824;4.682;2023-07-29T10:12:58;20.70;99.90
37998;DHT22;24079;51.824;4.682;2023-07-29T10:15:25;20.50;99.90
37998;DHT22;24079;51.824;4.682;2023-07-29T10:17:51;20.60;99.90
37998;DHT22;24079;51.824;4.682;2023-07-29T10:20:17;20.70;99.90
37998;DHT22;24079;51.824;4.682;2023-07-29T10:22:47;20.70;99.90
37998;DHT22;24079;51.824;4.682;2023-07-29T10:25:22;20.60;99.90
37998;DHT22;24079;51.824;4.682;2023-07-29T10:27:53;20.60;99.90
37998;DHT22;24079;51.824;4.682;2023-07-29T10:30:21;20.40;99.90
37998;DHT22;24079;51.824;4.682;2023-07-29T10:32:49;20.40;99.90
37998;DHT22;24079;51.824;4.682;2023-07-29T10:35:16;20.30;99.90
37998;DHT22;24079;51.824;4.682;2023-07-29T10:37:43;20.20;99.90
37998;DHT22;24079;51.824;4.682;2023-07-29T10:40:10;20.00;99.90
37998;DHT22;24079;51.824;4.682;2023-07-29T10:42:38;19.70;99.90
37998;DHT22;24079;51.824;4.682;2023-07-29T10:45:18;19.60;99.90
37998;DHT22;24079;51.824;4.682;2023-07-29T10:47:44;19.50;99.90
37998;DHT22;24079;51.824;4.682;2023-07-29T10:50:19;19.40;99.90
37998;DHT22;24079;51.824;4.682;2023-07-29T10:52:50;19.30;99.90
37998;DHT22;24079;51.824;4.682;2023-07-29T10:55:43;19.20;99.90
37998;DHT22;24079;51.824;4.682;2023-07-29T10:58:14;19.20;99.90
37998;DHT22;24079;51.824;4.682;2023-07-29T11:00:43;19.20;99.90
37998;DHT22;24079;51.824;4.682;2023-07-29T11:03:09;19.30;99.90
37998;DHT22;24079;51.824;4.682;2023-07-29T11:05:46;19.20;99.90
37998;DHT22;24079;51.824;4.682;2023-07-29T11:08:29;19.30;99.90
37998;DHT22;24079;51.824;4.682;2023-07-29T11:11:09;19.40;99.90
37998;DHT22;24079;51.824;4.682;2023-07-29T11:13:37;19.50;99.90
37998;DHT22;24079;51.824;4.682;2023-07-29T11:16:05;19.60;99.90
37998;DHT22;24079;51.824;4.682;2023-07-29T11:18:33;19.80;99.90
37998;DHT22;24079;51.824;4.682;2023-07-29T11:21:03;20.30;99.90
37998;DHT22;24079;51.824;4.682;2023-07-29T11:23:36;20.90;99.90
37998;DHT22;24079;51.824;4.682;2023-07-29T11:26:03;21.10;99.90
37998;DHT22;24079;51.824;4.682;2023-07-29T11:28:29;21.40;99.90
37998;DHT22;24079;51.824;4.682;2023-07-29T11:30:56;21.60;99.90
37998;DHT22;24079;51.824;4.682;2023-07-29T11:33:26;21.50;99.90
37998;DHT22;24079;51.824;4.682;2023-07-29T11:35:53;21.60;99.90
37998;DHT22;24079;51.824;4.682;2023-07-29T11:38:20;21.60;99.90
37998;DHT22;24079;51.824;4.682;2023-07-29T11:41:00;21.80;99.90
37998;DHT22;24079;51.824;4.682;2023-07-29T11:43:28;21.70;99.90
37998;DHT22;24079;51.824;4.682;2023-07-29T11:45:54;21.70;99.90
37998;DHT22;24079;51.824;4.682;2023-07-29T11:48:31;21.80;99.90
37998;DHT22;24079;51.824;4.682;2023-07-29T11:50:57;21.60;99.90
37998;DHT22;24079;51.824;4.682;2023-07-29T11:53:27;21.40;99.90
37998;DHT22;24079;51.824;4.682;2023-07-29T11:55:53;21.30;99.90
37998;DHT22;24079;51.824;4.682;2023-07-29T11:58:20;21.40;99.90
37998;DHT22;24079;51.824;4.682;2023-07-29T12:00:46;21.20;99.90
37998;DHT22;24079;51.824;4.682;2023-07-29T12:03:12;21.10;99.90
37998;DHT22;24079;51.824;4.682;2023-07-29T12:05:38;21.30;99.90
37998;DHT22;24079;51.824;4.682;2023-07-29T12:08:04;21.50;99.90
37998;DHT22;24079;51.824;4.682;2023-07-29T12:10:30;21.40;99.90
37998;DHT22;24079;51.824;4.682;2023-07-29T12:12:56;21.20;99.90
37998;DHT22;24079;51.824;4.682;2023-07-29T12:15:29;21.20;99.90
37998;DHT22;24079;51.824;4.682;2023-07-29T12:17:56;21.20;99.90
37998;DHT22;24079;51.824;4.682;2023-07-29T12:20:22;21.40;99.90
37998;DHT22;24079;51.824;4.682;2023-07-29T12:22:59;21.90;99.90
37998;DHT22;24079;51.824;4.682;2023-07-29T12:25:27;22.10;99.90
37998;DHT22;24079;51.824;4.682;2023-07-29T12:27:52;22.30;99.90
37998;DHT22;24079;51.824;4.682;2023-07-29T12:30:24;22.50;99.90
37998;DHT22;24079;51.824;4.682;2023-07-29T12:32:51;22.70;99.90
37998;DHT22;24079;51.824;4.682;2023-07-29T12:35:17;22.80;99.90
37998;DHT22;24079;51.824;4.682;2023-07-29T12:37:42;23.00;99.90
37998;DHT22;24079;51.824;4.682;2023-07-29T12:40:28;23.10;99.90
37998;DHT22;24079;51.824;4.682;2023-07-29T12:42:56;23.10;99.90
37998;DHT22;24079;51.824;4.682;2023-07-29T12:45:22;23.40;99.90
37998;DHT22;24079;51.824;4.682;2023-07-29T12:47:48;23.40;99.90
37998;DHT22;24079;51.824;4.682;2023-07-29T12:50:14;23.30;99.90
37998;DHT22;24079;51.824;4.682;2023-07-29T12:52:39;23.40;99.90
37998;DHT22;24079;51.824;4.682;2023-07-29T12:55:06;23.30;99.90
37998;DHT22;24079;51.824;4.682;2023-07-29T12:57:33;23.60;99.90
37998;DHT22;24079;51.824;4.682;2023-07-29T12:59:59;23.60;99.90
37998;DHT22;24079;51.824;4.682;2023-07-29T13:02:25;23.70;99.90
37998;DHT22;24079;51.824;4.682;2023-07-29T13:04:50;23.60;99.90
37998;DHT22;24079;51.824;4.682;2023-07-29T13:07:16;23.70;99.90
37998;DHT22;24079;51.824;4.682;2023-07-29T13:09:41;23.70;99.90
37998;DHT22;24079;51.824;4.682;2023-07-29T13:12:07;23.70;99.90
37998;DHT22;24079;51.824;4.682;2023-07-29T13:14:33;23.80;99.90
37998;DHT22;24079;51.824;4.682;2023-07-29T13:16:58;23.70;99.90
37998;DHT22;24079;51.824;4.682;2023-07-29T13:19:24;23.60;99.90
37998;DHT22;24079;51.824;4.682;2023-07-29T13:21:49;23.60;99.90
37998;DHT22;24079;51.824;4.682;2023-07-29T13:24:15;23.50;99.90
37998;DHT22;24079;51.824;4.682;2023-07-29T13:26:41;23.70;99.90
37998;DHT22;24079;51.824;4.682;2023-07-29T13:29:07;23.70;99.90
37998;DHT22;24079;51.824;4.682;2023-07-29T13:31:33;23.60;99.90
37998;DHT22;24079;51.824;4.682;2023-07-29T13:33:58;23.60;99.90
37998;DHT22;24079;51.824;4.682;2023-07-29T13:36:24;23.50;99.90
37998;DHT22;24079;51.824;4.682;2023-07-29T13:38:50;23.40;99.90
37998;DHT22;24079;51.824;4.682;2023-07-29T13:41:15;23.50;99.90
37998;DHT22;24079;51.824;4.682;2023-07-29T13:43:41;23.60;99.90
37998;DHT22;24079;51.824;4.682;2023-07-29T13:46:06;23.90;99.90
37998;DHT22;24079;51.824;4.682;2023-07-29T13:48:32;23.90;99.90
37998;DHT22;24079;51.824;4.682;2023-07-29T13:50:58;23.60;99.90
37998;DHT22;24079;51.824;4.682;2023-07-29T13:53:24;23.50;99.90
37998;DHT22;24079;51.824;4.682;2023-07-29T13:55:51;23.60;99.90
37998;DHT22;24079;51.824;4.682;2023-07-29T13:58:16;23.80;99.90
37998;DHT22;24079;51.824;4.682;2023-07-29T14:00:42;23.90;99.90
37998;DHT22;24079;51.824;4.682;2023-07-29T14:03:08;24.00;99.90
37998;DHT22;24079;51.824;4.682;2023-07-29T14:05:33;23.90;99.90
37998;DHT22;24079;51.824;4.682;2023-07-29T14:07:59;24.10;99.90
37998;DHT22;24079;51.824;4.682;2023-07-29T14:10:25;24.20;99.90
37998;DHT22;24079;51.824;4.682;2023-07-29T14:12:51;24.10;99.90
37998;DHT22;24079;51.824;4.682;2023-07-29T14:15:16;24.00;99.90
37998;DHT22;24079;51.824;4.682;2023-07-29T14:17:42;24.00;99.90
37998;DHT22;24079;51.824;4.682;2023-07-29T14:20:09;23.80;99.90
37998;DHT22;24079;51.824;4.682;2023-07-29T14:22:36;23.60;99.90
37998;DHT22;24079;51.824;4.682;2023-07-29T14:25:02;23.40;99.90
37998;DHT22;24079;51.824;4.682;2023-07-29T14:27:28;23.30;99.90
37998;DHT22;24079;51.824;4.682;2023-07-29T14:29:54;23.20;99.90
37998;DHT22;24079;51.824;4.682;2023-07-29T14:32:20;23.10;99.90
37998;DHT22;24079;51.824;4.682;2023-07-29T14:34:46;23.30;99.90
37998;DHT22;24079;51.824;4.682;2023-07-29T14:37:12;23.40;99.90
37998;DHT22;24079;51.824;4.682;2023-07-29T14:39:39;23.30;99.90
37998;DHT22;24079;51.824;4.682;2023-07-29T14:42:05;23.20;99.90
37998;DHT22;24079;51.824;4.682;2023-07-29T14:44:31;23.20;99.90
37998;DHT22;24079;51.824;4.682;2023-07-29T14:46:57;23.00;99.90
37998;DHT22;24079;51.824;4.682;2023-07-29T14:49:23;22.90;99.90
37998;DHT22;24079;51.824;4.682;2023-07-29T14:51:49;22.70;99.90
37998;DHT22;24079;51.824;4.682;2023-07-29T14:54:16;22.60;99.90
37998;DHT22;24079;51.824;4.682;2023-07-29T14:56:42;22.50;99.90
37998;DHT22;24079;51.824;4.682;2023-07-29T14:59:08;22.30;99.90
37998;DHT22;24079;51.824;4.682;2023-07-29T15:01:34;22.30;99.90
37998;DHT22;24079;51.824;4.682;2023-07-29T15:04:00;22.20;99.90
37998;DHT22;24079;51.824;4.682;2023-07-29T15:06:25;22.00;99.90
37998;DHT22;24079;51.824;4.682;2023-07-29T15:08:51;21.80;99.90
37998;DHT22;24079;51.824;4.682;2023-07-29T15:11:16;21.70;99.90
37998;DHT22;24079;51.824;4.682;2023-07-29T15:13:42;21.60;99.90
37998;DHT22;24079;51.824;4.682;2023-07-29T15:16:08;21.70;99.90
37998;DHT22;24079;51.824;4.682;2023-07-29T15:18:33;21.70;99.90
37998;DHT22;24079;51.824;4.682;2023-07-29T15:21:00;21.90;99.90
37998;DHT22;24079;51.824;4.682;2023-07-29T15:23:27;22.20;99.90
37998;DHT22;24079;51.824;4.682;2023-07-29T15:25:53;22.50;99.90
37998;DHT22;24079;51.824;4.682;2023-07-29T15:28:19;22.70;99.90
37998;DHT22;24079;51.824;4.682;2023-07-29T15:30:47;22.80;99.90
37998;DHT22;24079;51.824;4.682;2023-07-29T15:33:13;22.80;99.90
37998;DHT22;24079;51.824;4.682;2023-07-29T15:35:39;22.70;99.90